createdAt,value
2018-04-15T00:00:02.037Z,90.60
2018-04-15T00:02:04.622Z,90.60
2018-04-15T00:04:07.190Z,90.20
2018-04-15T00:06:09.795Z,90.20
2018-04-15T00:08:12.393Z,90.10
2018-04-15T00:10:16.041Z,90.10
2018-04-15T00:12:18.626Z,90.40
2018-04-15T00:14:22.063Z,90.40
2018-04-15T00:16:24.645Z,90.40
2018-04-15T00:18:27.980Z,90.30
2018-04-15T00:20:30.546Z,90.20
2018-04-15T00:22:33.128Z,90.30
2018-04-15T00:24:35.689Z,90.40
2018-04-15T00:26:38.274Z,90.40
2018-04-15T00:28:40.841Z,90.50
2018-04-15T00:30:43.405Z,90.60
2018-04-15T00:32:45.984Z,90.50
2018-04-15T00:34:48.538Z,90.70
2018-04-15T00:36:51.893Z,90.90
2018-04-15T00:38:54.466Z,91.00
2018-04-15T00:40:57.789Z,91.10
2018-04-15T00:43:01.167Z,91.00
2018-04-15T00:45:03.751Z,91.00
2018-04-15T00:47:07.097Z,90.70
2018-04-15T00:49:09.670Z,90.70
2018-04-15T00:51:13.062Z,90.50
2018-04-15T00:53:15.660Z,90.50
2018-04-15T00:55:18.250Z,90.40
2018-04-15T00:57:21.647Z,90.50
2018-04-15T00:59:24.981Z,90.70
2018-04-15T01:01:27.554Z,90.40
2018-04-15T01:03:30.633Z,90.50
2018-04-15T01:05:33.192Z,90.50
2018-04-15T01:07:35.985Z,90.40
2018-04-15T01:09:38.558Z,90.40
2018-04-15T01:11:41.183Z,90.40
2018-04-15T01:13:43.769Z,90.40
2018-04-15T01:15:46.330Z,90.60
2018-04-15T01:17:48.902Z,90.50
2018-04-15T01:19:51.614Z,90.60
2018-04-15T01:21:54.939Z,90.60
2018-04-15T01:23:57.517Z,90.60
2018-04-15T01:26:00.079Z,90.50
2018-04-15T01:28:02.640Z,90.70
2018-04-15T01:30:05.220Z,90.70
2018-04-15T01:32:07.782Z,90.70
2018-04-15T01:34:10.372Z,90.90
2018-04-15T01:36:12.935Z,91.20
2018-04-15T01:38:15.512Z,90.90
2018-04-15T01:40:18.688Z,90.80
2018-04-15T01:42:22.009Z,90.70
2018-04-15T01:44:25.787Z,90.80
2018-04-15T01:46:28.355Z,90.80
2018-04-15T01:48:30.966Z,91.00
2018-04-15T01:50:33.545Z,91.00
2018-04-15T01:52:36.189Z,91.40
2018-04-15T01:54:38.774Z,91.40
2018-04-15T01:56:41.351Z,91.20
2018-04-15T01:58:43.921Z,91.00
2018-04-15T02:00:46.572Z,91.20
2018-04-15T02:02:49.129Z,91.20
2018-04-15T02:04:52.504Z,91.30
2018-04-15T02:06:55.115Z,91.30
2018-04-15T02:08:57.689Z,91.30
2018-04-15T02:11:00.276Z,91.30
2018-04-15T02:13:03.290Z,91.10
2018-04-15T02:15:06.831Z,91.10
2018-04-15T02:17:10.161Z,91.30
2018-04-15T02:19:12.740Z,91.30
2018-04-15T02:21:15.318Z,91.30
2018-04-15T02:23:17.882Z,91.40
2018-04-15T02:25:20.546Z,91.40
2018-04-15T02:27:23.106Z,91.40
2018-04-15T02:29:25.672Z,91.70
2018-04-15T02:31:28.273Z,91.70
2018-04-15T02:33:30.838Z,91.60
2018-04-15T02:35:33.430Z,91.60
2018-04-15T02:37:36.551Z,91.70
2018-04-15T02:39:39.888Z,91.70
2018-04-15T02:41:42.470Z,91.60
2018-04-15T02:43:45.036Z,91.70
2018-04-15T02:45:47.826Z,91.60
2018-04-15T02:47:50.436Z,91.60
2018-04-15T02:49:53.098Z,91.90
2018-04-15T02:51:55.734Z,92.10
2018-04-15T02:53:58.297Z,92.10
2018-04-15T02:56:00.871Z,92.20
2018-04-15T02:58:03.500Z,92.40
2018-04-15T03:00:06.834Z,92.50
2018-04-15T03:02:09.454Z,92.50
2018-04-15T03:04:12.005Z,92.60
2018-04-15T03:06:14.600Z,92.80
2018-04-15T03:08:17.165Z,93.00
2018-04-15T03:10:19.738Z,93.00
2018-04-15T03:12:22.325Z,93.10
2018-04-15T03:14:24.905Z,93.00
2018-04-15T03:16:27.580Z,92.90
2018-04-15T03:18:30.155Z,92.80
2018-04-15T03:20:32.713Z,92.90
2018-04-15T03:22:35.330Z,92.60
2018-04-15T03:24:38.663Z,92.40
2018-04-15T03:26:41.229Z,92.40
2018-04-15T03:28:43.809Z,92.20
2018-04-15T03:30:46.376Z,92.10
2018-04-15T03:32:48.965Z,92.10
2018-04-15T03:34:52.299Z,91.80
2018-04-15T03:36:55.645Z,91.80
2018-04-15T03:38:58.229Z,91.70
2018-04-15T03:41:01.566Z,91.80
2018-04-15T03:43:04.921Z,92.00
2018-04-15T03:45:07.472Z,92.00
2018-04-15T03:47:10.034Z,92.20
2018-04-15T03:49:12.621Z,92.20
2018-04-15T03:51:15.184Z,92.30
2018-04-15T03:53:17.784Z,92.30
2018-04-15T03:55:20.398Z,92.40
2018-04-15T03:57:23.728Z,92.10
2018-04-15T03:59:26.314Z,92.10
2018-04-15T04:01:28.874Z,92.00
2018-04-15T04:03:31.449Z,92.10
2018-04-15T04:05:34.043Z,92.10
2018-04-15T04:07:36.602Z,92.20
2018-04-15T04:09:39.192Z,92.40
2018-04-15T04:11:41.765Z,92.50
2018-04-15T04:13:44.359Z,92.70
2018-04-15T04:15:46.913Z,92.60
2018-04-15T04:18:01.466Z,92.60
2018-04-15T04:20:15.872Z,92.60
2018-04-15T04:22:30.987Z,92.90
2018-04-15T04:24:45.403Z,92.90
2018-04-15T04:26:47.976Z,93.00
2018-04-15T04:28:50.530Z,93.10
2018-04-15T04:30:53.877Z,93.10
2018-04-15T04:32:56.463Z,93.10
2018-04-15T04:34:59.055Z,93.20
2018-04-15T04:37:01.654Z,93.10
2018-04-15T04:39:05.849Z,93.20
2018-04-15T04:41:09.864Z,93.00
2018-04-15T04:43:13.224Z,93.10
2018-04-15T04:45:15.841Z,93.10
2018-04-15T04:47:18.423Z,93.10
2018-04-15T04:49:20.994Z,92.80
2018-04-15T04:51:23.594Z,92.70
2018-04-15T04:53:27.026Z,92.80
2018-04-15T04:55:29.643Z,92.90
2018-04-15T04:57:32.234Z,93.00
2018-04-15T04:59:34.824Z,92.70
2018-04-15T05:01:37.438Z,93.00
2018-04-15T05:03:40.850Z,92.90
2018-04-15T05:05:43.480Z,92.80
2018-04-15T05:07:46.137Z,92.60
2018-04-15T05:09:49.525Z,92.50
2018-04-15T05:11:52.133Z,92.50
2018-04-15T05:13:55.022Z,92.50
2018-04-15T05:15:57.620Z,92.40
2018-04-15T05:18:00.198Z,92.40
2018-04-15T05:20:02.807Z,92.40
2018-04-15T05:22:05.428Z,92.20
2018-04-15T05:24:08.789Z,92.40
2018-04-15T05:26:11.376Z,92.40
2018-04-15T05:28:13.991Z,92.70
2018-04-15T05:30:16.598Z,92.90
2018-04-15T05:32:19.410Z,92.90
2018-04-15T05:34:21.981Z,92.90
2018-04-15T05:36:24.607Z,92.90
2018-04-15T05:38:27.203Z,92.80
2018-04-15T05:40:30.628Z,92.60
2018-04-15T05:42:33.243Z,92.60
2018-04-15T05:44:35.854Z,92.50
2018-04-15T05:46:38.464Z,92.30
2018-04-15T05:48:41.060Z,92.40
2018-04-15T05:50:43.723Z,92.10
2018-04-15T05:52:47.101Z,92.20
2018-04-15T05:54:50.472Z,92.40
2018-04-15T05:56:53.075Z,92.40
2018-04-15T05:58:56.429Z,92.30
2018-04-15T06:00:59.025Z,92.30
2018-04-15T06:03:03.249Z,91.80
2018-04-15T06:05:06.675Z,91.60
2018-04-15T06:07:09.278Z,91.50
2018-04-15T06:09:11.879Z,91.30
2018-04-15T06:11:16.204Z,91.40
2018-04-15T06:13:21.228Z,91.70
2018-04-15T06:15:23.820Z,91.70
2018-04-15T06:17:27.191Z,91.30
2018-04-15T06:19:30.564Z,91.20
2018-04-15T06:21:33.146Z,91.20
2018-04-15T06:23:35.747Z,91.10
2018-04-15T06:25:39.101Z,90.90
2018-04-15T06:27:41.699Z,90.90
2018-04-15T06:29:44.336Z,91.00
2018-04-15T06:31:46.941Z,91.00
2018-04-15T06:33:49.650Z,91.10
2018-04-15T06:35:52.248Z,91.20
2018-04-15T06:37:54.832Z,91.30
2018-04-15T06:39:57.835Z,91.20
2018-04-15T06:42:00.523Z,91.10
2018-04-15T06:44:03.129Z,91.10
2018-04-15T06:46:06.531Z,91.30
2018-04-15T06:48:09.143Z,91.30
2018-04-15T06:50:11.772Z,91.50
2018-04-15T06:52:14.351Z,91.80
2018-04-15T06:54:16.965Z,91.90
2018-04-15T06:56:19.598Z,91.90
2018-04-15T06:58:22.935Z,91.60
2018-04-15T07:00:25.624Z,91.60
2018-04-15T07:02:28.236Z,91.60
2018-04-15T07:04:30.899Z,91.20
2018-04-15T07:06:34.272Z,90.80
2018-04-15T07:08:36.873Z,90.80
2018-04-15T07:10:39.495Z,89.50
2018-04-15T07:12:42.082Z,89.00
2018-04-15T07:14:44.694Z,89.10
2018-04-15T07:16:48.060Z,88.10
2018-04-15T07:18:50.666Z,88.00
2018-04-15T07:20:54.609Z,88.10
2018-04-15T07:22:57.211Z,88.60
2018-04-15T07:24:59.808Z,88.10
2018-04-15T07:27:03.167Z,87.50
2018-04-15T07:29:05.797Z,87.40
2018-04-15T07:31:08.408Z,87.40
2018-04-15T07:33:11.007Z,87.30
2018-04-15T07:35:13.617Z,86.80
2018-04-15T07:37:16.288Z,86.50
2018-04-15T07:39:19.644Z,85.80
2018-04-15T07:41:22.301Z,85.80
2018-04-15T07:43:25.685Z,84.80
2018-04-15T07:45:28.302Z,84.70
2018-04-15T07:47:30.961Z,84.30
2018-04-15T07:49:33.566Z,84.70
2018-04-15T07:51:36.944Z,83.80
2018-04-15T07:53:39.531Z,83.80
2018-04-15T07:55:42.904Z,83.60
2018-04-15T07:57:45.536Z,83.60
2018-04-15T07:59:48.162Z,83.30
2018-04-15T08:01:51.593Z,82.50
2018-04-15T08:03:55.099Z,82.50
2018-04-15T08:05:57.888Z,82.40
2018-04-15T08:08:00.595Z,81.80
2018-04-15T08:10:04.317Z,81.40
2018-04-15T08:12:07.695Z,80.50
2018-04-15T08:14:10.289Z,80.50
2018-04-15T08:16:13.665Z,79.80
2018-04-15T08:18:16.240Z,79.80
2018-04-15T08:20:18.831Z,80.10
2018-04-15T08:22:21.668Z,79.80
2018-04-15T08:24:24.260Z,81.30
2018-04-15T08:26:26.877Z,82.00
2018-04-15T08:28:29.471Z,81.90
2018-04-15T08:30:32.074Z,82.40
2018-04-15T08:32:34.682Z,82.70
2018-04-15T08:34:38.110Z,81.70
2018-04-15T08:36:40.721Z,81.60
2018-04-15T08:38:43.319Z,80.70
2018-04-15T08:40:46.733Z,79.00
2018-04-15T08:42:49.416Z,79.00
2018-04-15T08:44:52.008Z,77.30
2018-04-15T08:46:54.743Z,77.30
2018-04-15T08:48:58.103Z,76.20
2018-04-15T08:51:00.739Z,76.10
2018-04-15T08:53:03.428Z,76.30
2018-04-15T08:55:06.017Z,76.60
2018-04-15T08:57:08.636Z,76.80
2018-04-15T08:59:11.997Z,76.30
2018-04-15T09:01:14.621Z,76.20
2018-04-15T09:03:17.212Z,76.40
2018-04-15T09:05:19.800Z,76.50
2018-04-15T09:07:23.948Z,77.10
2018-04-15T09:09:27.303Z,77.00
2018-04-15T09:11:29.945Z,77.00
2018-04-15T09:13:32.533Z,76.80
2018-04-15T09:15:35.132Z,77.30
2018-04-15T09:17:37.804Z,76.70
2018-04-15T09:19:41.165Z,76.70
2018-04-15T09:21:43.823Z,76.70
2018-04-15T09:23:46.453Z,77.40
2018-04-15T09:25:49.065Z,77.30
2018-04-15T09:27:52.431Z,75.50
2018-04-15T09:29:55.021Z,75.30
2018-04-15T09:31:58.412Z,73.50
2018-04-15T09:34:01.879Z,73.20
2018-04-15T09:36:04.473Z,73.20
2018-04-15T09:38:07.080Z,73.60
2018-04-15T09:40:09.701Z,73.20
2018-04-15T09:42:12.328Z,73.80
2018-04-15T09:44:14.951Z,75.00
2018-04-15T09:46:17.570Z,75.40
2018-04-15T09:48:20.948Z,76.00
2018-04-15T09:50:24.308Z,75.00
2018-04-15T09:52:26.927Z,75.00
2018-04-15T09:54:29.597Z,75.80
2018-04-15T09:56:34.049Z,75.30
2018-04-15T09:58:36.696Z,75.30
2018-04-15T10:00:40.049Z,74.80
2018-04-15T10:02:42.658Z,74.70
2018-04-15T10:04:46.015Z,74.50
2018-04-15T10:06:48.640Z,74.40
2018-04-15T10:08:51.577Z,74.50
2018-04-15T10:10:54.183Z,74.60
2018-04-15T10:12:58.123Z,73.30
2018-04-15T10:15:02.255Z,73.30
2018-04-15T10:17:09.689Z,73.70
2018-04-15T10:19:15.046Z,73.40
2018-04-15T10:21:17.681Z,72.90
2018-04-15T10:23:20.390Z,71.80
2018-04-15T10:25:23.077Z,70.80
2018-04-15T10:27:25.692Z,71.20
2018-04-15T10:29:28.339Z,71.40
2018-04-15T10:31:30.933Z,71.00
2018-04-15T10:33:34.200Z,70.90
2018-04-15T10:35:36.843Z,72.10
2018-04-15T10:37:40.193Z,72.20
2018-04-15T10:39:42.804Z,72.10
2018-04-15T10:41:46.216Z,70.00
2018-04-15T10:43:48.839Z,70.00
2018-04-15T10:45:51.436Z,71.50
2018-04-15T10:47:54.957Z,69.20
2018-04-15T10:49:57.598Z,69.20
2018-04-15T10:52:00.192Z,68.10
2018-04-15T10:54:03.580Z,68.10
2018-04-15T10:56:06.936Z,67.00
2018-04-15T10:58:09.527Z,67.00
2018-04-15T11:00:12.156Z,67.00
2018-04-15T11:02:14.751Z,66.70
2018-04-15T11:04:17.365Z,66.10
2018-04-15T11:06:19.958Z,64.70
2018-04-15T11:08:23.349Z,62.40
2018-04-15T11:10:26.739Z,62.20
2018-04-15T11:12:30.147Z,62.30
2018-04-15T11:14:32.758Z,62.30
2018-04-15T11:16:35.383Z,62.80
2018-04-15T11:18:38.736Z,60.30
2018-04-15T11:20:42.111Z,60.90
2018-04-15T11:22:44.702Z,60.90
2018-04-15T11:24:47.317Z,60.50
2018-04-15T11:26:50.675Z,61.70
2018-04-15T11:28:53.389Z,61.70
2018-04-15T11:30:56.768Z,61.00
2018-04-15T11:33:00.116Z,62.70
2018-04-15T11:35:02.776Z,62.60
2018-04-15T11:37:05.380Z,61.40
2018-04-15T11:39:07.970Z,61.60
2018-04-15T11:41:10.589Z,60.80
2018-04-15T11:43:13.199Z,60.50
2018-04-15T11:45:15.869Z,60.60
2018-04-15T11:47:18.460Z,60.40
2018-04-15T11:49:21.927Z,61.40
2018-04-15T11:51:24.548Z,61.20
2018-04-15T11:53:27.889Z,62.70
2018-04-15T11:55:30.495Z,62.70
2018-04-15T11:57:33.116Z,64.00
2018-04-15T11:59:35.773Z,64.30
2018-04-15T12:01:39.168Z,63.70
2018-04-15T12:03:42.533Z,65.20
2018-04-15T12:05:45.139Z,65.10
2018-04-15T12:07:47.754Z,64.40
2018-04-15T12:09:50.341Z,65.00
2018-04-15T12:11:52.966Z,64.70
2018-04-15T12:13:55.561Z,65.00
2018-04-15T12:15:58.406Z,64.90
2018-04-15T12:18:01.777Z,65.30
2018-04-15T12:20:04.372Z,65.20
2018-04-15T12:22:08.887Z,66.30
2018-04-15T12:24:12.284Z,67.70
2018-04-15T12:26:15.664Z,68.00
2018-04-15T12:28:18.345Z,67.90
2018-04-15T12:30:20.941Z,68.30
2018-04-15T12:32:23.566Z,67.60
2018-04-15T12:34:26.162Z,66.20
2018-04-15T12:36:28.898Z,67.40
2018-04-15T12:38:31.488Z,66.30
2018-04-15T12:40:34.105Z,66.20
2018-04-15T12:42:37.480Z,66.00
2018-04-15T12:44:40.855Z,66.00
2018-04-15T12:46:43.693Z,65.80
2018-04-15T12:48:46.311Z,66.30
2018-04-15T12:50:48.907Z,67.30
2018-04-15T12:52:51.514Z,67.80
2018-04-15T12:54:54.129Z,69.10
2018-04-15T12:56:56.740Z,68.80
2018-04-15T12:59:00.111Z,67.70
2018-04-15T13:01:02.732Z,67.50
2018-04-15T13:03:05.385Z,66.90
2018-04-15T13:05:08.761Z,68.50
2018-04-15T13:07:11.408Z,68.50
2018-04-15T13:09:14.104Z,67.30
2018-04-15T13:11:16.731Z,69.30
2018-04-15T13:13:20.279Z,69.80
2018-04-15T13:15:22.885Z,69.80
2018-04-15T13:17:25.787Z,69.00
2018-04-15T13:19:28.390Z,68.10
2018-04-15T13:21:30.991Z,68.10
2018-04-15T13:23:33.600Z,68.30
2018-04-15T13:25:36.212Z,68.80
2018-04-15T13:27:39.698Z,69.80
2018-04-15T13:29:42.293Z,68.60
2018-04-15T13:31:44.875Z,68.80
2018-04-15T13:33:47.511Z,68.20
2018-04-15T13:35:50.117Z,68.00
2018-04-15T13:37:52.730Z,68.30
2018-04-15T13:39:55.353Z,68.00
2018-04-15T13:41:57.948Z,69.00
2018-04-15T13:44:00.589Z,69.00
2018-04-15T13:46:03.180Z,69.60
2018-04-15T13:48:05.781Z,69.40
2018-04-15T13:50:08.380Z,69.30
2018-04-15T13:52:10.973Z,68.50
2018-04-15T13:54:13.588Z,68.60
2018-04-15T13:56:16.196Z,67.70
2018-04-15T13:58:19.584Z,68.90
2018-04-15T14:00:22.984Z,67.80
2018-04-15T14:02:25.607Z,67.70
2018-04-15T14:04:28.215Z,67.70
2018-04-15T14:06:31.595Z,67.40
2018-04-15T14:08:34.231Z,67.40
2018-04-15T14:10:37.125Z,67.40
2018-04-15T14:12:39.726Z,66.80
2018-04-15T14:14:42.353Z,67.40
2018-04-15T14:16:44.958Z,66.60
2018-04-15T14:18:47.600Z,66.70
2018-04-15T14:20:50.201Z,65.70
2018-04-15T14:22:53.322Z,65.10
2018-04-15T14:24:56.718Z,65.80
2018-04-15T14:27:00.096Z,64.50
2018-04-15T14:29:02.718Z,64.50
2018-04-15T14:31:05.325Z,64.70
2018-04-15T14:33:07.922Z,63.80
2018-04-15T14:35:10.589Z,63.90
2018-04-15T14:37:13.201Z,63.90
2018-04-15T14:39:15.827Z,63.90
2018-04-15T14:41:18.445Z,64.10
2018-04-15T14:43:21.040Z,65.30
2018-04-15T14:45:23.668Z,67.10
2018-04-15T14:47:26.295Z,66.00
2018-04-15T14:49:28.912Z,66.40
2018-04-15T14:51:31.508Z,66.50
2018-04-15T14:53:34.877Z,64.50
2018-04-15T14:55:37.522Z,64.50
2018-04-15T14:57:40.137Z,65.30
2018-04-15T14:59:42.753Z,65.40
2018-04-15T15:01:45.358Z,65.60
2018-04-15T15:03:48.735Z,66.20
2018-04-15T15:05:51.357Z,66.20
2018-04-15T15:07:54.844Z,66.50
2018-04-15T15:09:57.461Z,65.70
2018-04-15T15:12:00.065Z,66.30
2018-04-15T15:14:02.676Z,66.40
2018-04-15T15:16:05.324Z,66.80
2018-04-15T15:18:07.917Z,66.10
2018-04-15T15:20:10.519Z,66.40
2018-04-15T15:22:13.096Z,66.40
2018-04-15T15:24:16.593Z,65.30
2018-04-15T15:26:19.249Z,65.20
2018-04-15T15:28:22.627Z,64.70
2018-04-15T15:30:25.278Z,64.60
2018-04-15T15:32:27.862Z,64.30
2018-04-15T15:34:30.457Z,63.60
2018-04-15T15:36:33.130Z,62.50
2018-04-15T15:38:36.046Z,63.00
2018-04-15T15:40:38.668Z,64.70
2018-04-15T15:42:41.286Z,62.80
2018-04-15T15:44:44.640Z,64.00
2018-04-15T15:46:47.247Z,63.90
2018-04-15T15:48:50.679Z,61.90
2018-04-15T15:50:53.306Z,61.90
2018-04-15T15:52:56.674Z,64.10
2018-04-15T15:54:59.319Z,64.00
2018-04-15T15:57:01.945Z,63.90
2018-04-15T15:59:05.288Z,63.00
2018-04-15T16:01:07.920Z,63.00
2018-04-15T16:03:11.297Z,63.60
2018-04-15T16:05:13.888Z,63.60
2018-04-15T16:07:17.259Z,65.10
2018-04-15T16:09:19.860Z,65.10
2018-04-15T16:11:23.996Z,64.70
2018-04-15T16:13:26.595Z,64.70
2018-04-15T16:15:29.254Z,65.60
2018-04-15T16:17:31.860Z,66.20
2018-04-15T16:19:34.469Z,66.30
2018-04-15T16:21:37.892Z,66.70
2018-04-15T16:23:40.736Z,66.60
2018-04-15T16:25:44.116Z,65.50
2018-04-15T16:27:46.708Z,65.50
2018-04-15T16:29:50.076Z,66.50
2018-04-15T16:31:52.693Z,66.50
2018-04-15T16:33:55.279Z,66.20
2018-04-15T16:35:57.916Z,67.10
2018-04-15T16:38:01.280Z,67.40
2018-04-15T16:40:03.888Z,67.40
2018-04-15T16:42:07.259Z,68.80
2018-04-15T16:44:09.869Z,68.70
2018-04-15T16:46:12.504Z,69.40
2018-04-15T16:48:15.094Z,68.50
2018-04-15T16:50:18.448Z,68.80
2018-04-15T16:52:23.033Z,68.80
2018-04-15T16:54:25.652Z,69.70
2018-04-15T16:56:28.297Z,69.90
2018-04-15T16:58:30.903Z,70.60
2018-04-15T17:00:33.534Z,70.40
2018-04-15T17:02:36.156Z,70.40
2018-04-15T17:04:38.759Z,70.40
2018-04-15T17:06:42.181Z,70.30
2018-04-15T17:08:44.797Z,70.30
2018-04-15T17:10:48.430Z,71.10
2018-04-15T17:12:54.247Z,71.10
2018-04-15T17:14:56.865Z,71.10
2018-04-15T17:16:59.520Z,71.60
2018-04-15T17:19:02.905Z,72.80
2018-04-15T17:21:05.568Z,72.80
2018-04-15T17:23:08.196Z,73.80
2018-04-15T17:25:10.819Z,76.00
2018-04-15T17:27:13.483Z,76.80
2018-04-15T17:29:16.081Z,77.80
2018-04-15T17:31:19.432Z,81.00
2018-04-15T17:33:22.036Z,80.40
2018-04-15T17:35:24.686Z,80.10
2018-04-15T17:37:28.078Z,81.10
2018-04-15T17:39:30.696Z,81.10
2018-04-15T17:41:34.083Z,81.40
2018-04-15T17:43:36.752Z,81.40
2018-04-15T17:45:39.387Z,81.60
2018-04-15T17:47:42.024Z,81.60
2018-04-15T17:49:45.420Z,81.80
2018-04-15T17:51:48.055Z,81.80
2018-04-15T17:53:50.692Z,82.30
2018-04-15T17:55:53.400Z,82.90
2018-04-15T17:57:56.036Z,83.70
2018-04-15T17:59:58.663Z,84.00
2018-04-15T18:02:01.313Z,84.90
2018-04-15T18:04:04.745Z,84.30
2018-04-15T18:06:07.350Z,84.30
2018-04-15T18:08:10.034Z,84.50
2018-04-15T18:10:12.645Z,85.30
2018-04-15T18:12:15.249Z,84.60
2018-04-15T18:14:17.893Z,84.20
2018-04-15T18:16:20.492Z,84.00
2018-04-15T18:18:23.144Z,84.50
2018-04-15T18:20:25.762Z,86.30
2018-04-15T18:22:29.519Z,87.20
2018-04-15T18:24:32.140Z,87.10
2018-04-15T18:26:36.440Z,84.80
2018-04-15T18:28:39.939Z,85.50
2018-04-15T18:30:43.317Z,85.60
2018-04-15T18:32:45.959Z,85.60
2018-04-15T18:34:48.585Z,85.60
2018-04-15T18:36:51.249Z,87.30
2018-04-15T18:38:54.652Z,88.00
2018-04-15T18:40:58.084Z,88.60
2018-04-15T18:43:00.688Z,88.50
2018-04-15T18:45:03.324Z,89.50
2018-04-15T18:47:05.936Z,89.40
2018-04-15T18:49:08.702Z,89.50
2018-04-15T18:51:11.351Z,89.60
2018-04-15T18:53:13.935Z,89.70
2018-04-15T18:55:16.626Z,90.10
2018-04-15T18:57:19.267Z,90.10
2018-04-15T18:59:21.886Z,90.00
2018-04-15T19:01:24.533Z,90.30
2018-04-15T19:03:27.155Z,90.20
2018-04-15T19:05:29.880Z,90.40
2018-04-15T19:07:32.487Z,90.50
2018-04-15T19:09:35.108Z,90.40
2018-04-15T19:11:38.484Z,90.60
2018-04-15T19:13:41.893Z,90.60
2018-04-15T19:15:45.313Z,90.70
2018-04-15T19:17:47.956Z,90.70
2018-04-15T19:19:51.339Z,90.20
2018-04-15T19:21:54.006Z,90.20
2018-04-15T19:23:56.765Z,90.80
2018-04-15T19:25:59.380Z,90.90
2018-04-15T19:28:02.765Z,90.80
2018-04-15T19:30:06.290Z,90.80
2018-04-15T19:32:08.947Z,90.60
2018-04-15T19:34:12.391Z,91.10
2018-04-15T19:36:15.014Z,91.00
2018-04-15T19:38:18.388Z,91.20
2018-04-15T19:40:21.035Z,91.20
2018-04-15T19:42:23.655Z,91.50
2018-04-15T19:44:27.062Z,91.60
2018-04-15T19:46:29.676Z,91.60
2018-04-15T19:48:32.317Z,91.90
2018-04-15T19:50:34.937Z,91.70
2018-04-15T19:52:37.545Z,91.70
2018-04-15T19:54:41.006Z,91.90
2018-04-15T19:56:43.567Z,91.90
2018-04-15T19:58:46.194Z,91.90
2018-04-15T20:00:49.577Z,92.40
2018-04-15T20:02:52.943Z,92.50
2018-04-15T20:04:55.670Z,92.50
2018-04-15T20:06:58.357Z,92.50
2018-04-15T20:09:01.779Z,92.40
2018-04-15T20:11:04.415Z,92.70
2018-04-15T20:13:07.041Z,92.60
2018-04-15T20:15:09.680Z,92.60
2018-04-15T20:17:12.285Z,92.60
2018-04-15T20:19:15.068Z,92.70
2018-04-15T20:21:17.708Z,92.70
2018-04-15T20:23:20.297Z,92.40
2018-04-15T20:25:22.897Z,92.30
2018-04-15T20:27:25.529Z,92.30
2018-04-15T20:29:28.152Z,92.20
2018-04-15T20:31:30.775Z,92.00
2018-04-15T20:33:33.392Z,91.90
2018-04-15T20:35:36.625Z,92.60
2018-04-15T20:37:39.280Z,92.80
2018-04-15T20:39:42.645Z,92.60
2018-04-15T20:41:45.280Z,92.60
2018-04-15T20:43:47.893Z,92.60
2018-04-15T20:45:50.529Z,92.90
2018-04-15T20:47:53.268Z,92.90
2018-04-15T20:49:56.636Z,92.60
2018-04-15T20:51:59.256Z,92.50
2018-04-15T20:54:01.881Z,92.70
2018-04-15T20:56:04.486Z,92.50
2018-04-15T20:58:07.869Z,92.50
2018-04-15T21:00:10.475Z,92.50
2018-04-15T21:02:13.111Z,92.40
2018-04-15T21:04:15.714Z,92.40
2018-04-15T21:06:19.052Z,92.60
2018-04-15T21:08:21.704Z,92.60
2018-04-15T21:10:24.286Z,92.40
2018-04-15T21:12:26.918Z,92.50
2018-04-15T21:14:29.505Z,92.40
2018-04-15T21:16:32.928Z,92.70
2018-04-15T21:18:36.304Z,92.80
2018-04-15T21:20:39.831Z,92.80
2018-04-15T21:22:42.459Z,92.60
2018-04-15T21:24:45.851Z,92.50
2018-04-15T21:26:49.225Z,92.40
2018-04-15T21:28:51.872Z,92.40
2018-04-15T21:30:54.515Z,92.80
2018-04-15T21:32:57.132Z,92.30
2018-04-15T21:34:59.737Z,92.30
2018-04-15T21:37:03.140Z,92.60
2018-04-15T21:39:06.527Z,92.70
2018-04-15T21:41:09.884Z,93.10
2018-04-15T21:43:12.538Z,93.00
2018-04-15T21:45:15.135Z,93.10
2018-04-15T21:47:17.785Z,93.00
2018-04-15T21:49:20.385Z,93.00
2018-04-15T21:51:22.988Z,93.30
2018-04-15T21:53:26.368Z,93.40
2018-04-15T21:55:28.973Z,93.40
2018-04-15T21:57:31.600Z,93.50
2018-04-15T21:59:34.209Z,92.90
2018-04-15T22:01:37.580Z,92.80
2018-04-15T22:03:40.288Z,92.70
2018-04-15T22:05:43.631Z,92.80
2018-04-15T22:07:46.263Z,92.80
2018-04-15T22:09:48.887Z,92.60
2018-04-15T22:12:03.404Z,92.60
2018-04-15T22:14:06.019Z,92.80
2018-04-15T22:16:08.604Z,92.60
2018-04-15T22:18:11.220Z,92.40
2018-04-15T22:20:13.816Z,92.60
2018-04-15T22:22:16.408Z,92.70
2018-04-15T22:24:20.536Z,93.20
2018-04-15T22:26:23.128Z,92.90
2018-04-15T22:28:26.496Z,93.20
2018-04-15T22:30:29.088Z,93.00
2018-04-15T22:32:31.671Z,92.80
2018-04-15T22:34:35.088Z,92.80
2018-04-15T22:36:37.689Z,92.80
2018-04-15T22:38:41.268Z,93.00
2018-04-15T22:40:43.876Z,93.00
2018-04-15T22:42:46.457Z,93.10
2018-04-15T22:44:49.113Z,93.10
2018-04-15T22:46:51.680Z,93.40
2018-04-15T22:48:56.084Z,93.50
2018-04-15T22:50:58.700Z,93.40
2018-04-15T22:53:01.284Z,93.50
2018-04-15T22:55:04.668Z,93.80
2018-04-15T22:57:13.242Z,93.50
2018-04-15T22:59:16.741Z,93.50
2018-04-15T23:01:19.332Z,93.70
2018-04-15T23:03:21.932Z,93.50
2018-04-15T23:05:26.109Z,93.50
2018-04-15T23:07:28.693Z,93.50
2018-04-15T23:09:31.320Z,93.50
2018-04-15T23:11:33.913Z,93.40
2018-04-15T23:13:36.552Z,93.50
2018-04-15T23:15:39.949Z,93.30
2018-04-15T23:17:42.553Z,93.30
2018-04-15T23:19:45.173Z,93.20
2018-04-15T23:21:47.744Z,92.80
2018-04-15T23:23:50.342Z,92.90
2018-04-15T23:25:53.727Z,93.10
2018-04-15T23:27:57.105Z,92.70
2018-04-15T23:29:59.825Z,92.70
2018-04-15T23:32:02.433Z,92.90
2018-04-15T23:34:05.020Z,92.80
2018-04-15T23:36:07.642Z,93.00
2018-04-15T23:38:10.244Z,93.30
2018-04-15T23:40:12.859Z,93.00
2018-04-15T23:42:15.717Z,93.60
2018-04-15T23:44:18.303Z,93.00
2018-04-15T23:46:21.000Z,92.90
2018-04-15T23:48:24.364Z,92.90
2018-04-15T23:50:26.987Z,92.80
2018-04-15T23:52:29.576Z,92.90
2018-04-15T23:54:32.177Z,93.00
2018-04-15T23:56:34.809Z,93.00
2018-04-15T23:58:37.409Z,92.90
